Time;durP1;ratioP1;P1;durP2;ratioP2;P2;SDS_P1;SDS_P2;PMS_P1;PMS_P2;Temp;Humidity;BMP_temperature;BMP_pressure;BME280_temperature;BME280_humidity;BME280_pressure;Samples;Min_cycle;Max_cycle;Signal;HPM_P1;HPM_P2
2021/12/13 04:03:10;;;;;;;66.07;32.67;;;8.80;96.80;;;;;;5090944;28;20550;-38
2021/12/13 04:05:37;;;;;;;54.38;28.27;;;8.80;96.80;;;;;;5090515;28;20021;-38
2021/12/13 04:08:07;;;;;;;54.47;28.15;;;8.80;96.80;;;;;;5090525;28;20025;-37
2021/12/13 04:10:44;;;;;;;54.83;29.52;;;9.00;96.70;;;;;;5090626;28;20380;-39
2021/12/13 04:13:14;;;;;;;50.05;27.73;;;8.90;96.70;;;;;;5090383;28;20024;-38
2021/12/13 04:19:16;;;;;;;42.17;25.33;;;9.00;96.70;;;;;;5090503;28;20036;-38
2021/12/13 04:21:19;;;;;;;40.17;23.73;;;9.00;96.50;;;;;;5082614;28;20047;-37
2021/12/13 04:23:53;;;;;;;33.92;21.35;;;9.00;96.40;;;;;;5089954;28;20017;-37
2021/12/13 04:26:20;;;;;;;41.03;20.83;;;8.90;96.20;;;;;;5089902;28;20019;-38
2021/12/13 04:28:52;;;;;;;35.70;21.25;;;8.90;96.10;;;;;;5072143;28;20197;-37
2021/12/13 04:31:23;;;;;;;34.63;19.27;;;9.00;96.20;;;;;;5088541;28;20028;-38
2021/12/13 04:33:56;;;;;;;31.85;18.73;;;8.90;96.10;;;;;;5089890;28;20017;-38
2021/12/13 04:36:24;;;;;;;35.75;19.58;;;8.90;96.10;;;;;;5090063;28;20017;-39
2021/12/13 04:38:55;;;;;;;30.98;18.23;;;8.90;96.10;;;;;;5089693;28;20047;-38
2021/12/13 04:41:24;;;;;;;28.75;17.10;;;8.90;96.10;;;;;;5090109;28;20532;-38
2021/12/13 04:43:56;;;;;;;23.58;13.57;;;8.90;96.10;;;;;;5089996;28;20017;-38
2021/12/13 04:46:24;;;;;;;24.70;15.52;;;8.90;96.10;;;;;;5089907;28;20047;-38
2021/12/13 04:48:57;;;;;;;30.27;15.70;;;8.90;96.00;;;;;;5089984;28;20078;-38
2021/12/13 04:51:28;;;;;;;28.17;16.15;;;8.90;96.00;;;;;;5089793;28;20029;-38
2021/12/13 04:53:58;;;;;;;23.40;14.13;;;9.00;95.90;;;;;;5088159;28;20024;-37
2021/12/13 04:56:27;;;;;;;22.33;13.98;;;8.90;95.80;;;;;;5089678;28;20380;-37
2021/12/13 04:58:56;;;;;;;27.40;13.68;;;8.90;95.90;;;;;;5089538;28;20427;-37
2021/12/13 05:01:23;;;;;;;27.33;15.23;;;9.00;95.80;;;;;;5070807;28;20542;-38
2021/12/13 05:03:57;;;;;;;21.50;13.77;;;8.90;95.70;;;;;;5089580;28;20428;-38
2021/12/13 05:06:27;;;;;;;27.17;14.00;;;8.90;95.70;;;;;;5089508;28;20429;-38
2021/12/13 05:08:56;;;;;;;26.83;15.95;;;8.90;95.70;;;;;;5089399;28;20028;-38
2021/12/13 05:11:31;;;;;;;24.90;13.90;;;8.90;95.70;;;;;;5089423;28;20032;-38
2021/12/13 05:13:58;;;;;;;23.98;14.40;;;8.90;95.70;;;;;;5078965;28;20066;-38
2021/12/13 05:16:35;;;;;;;23.95;13.55;;;8.80;95.70;;;;;;5075849;28;20113;-38
2021/12/13 05:19:02;;;;;;;25.85;14.43;;;8.80;95.70;;;;;;5075668;28;20012;-39
2021/12/13 05:21:36;;;;;;;23.83;13.70;;;8.80;95.70;;;;;;5076241;28;20468;-38
2021/12/13 05:24:09;;;;;;;20.98;13.65;;;8.80;95.70;;;;;;5074614;28;20107;-38
2021/12/13 05:26:43;;;;;;;22.45;13.98;;;8.80;95.70;;;;;;5075430;28;20020;-38
2021/12/13 05:29:35;;;;;;;22.42;14.43;;;8.90;95.50;;;;;;5075416;28;20052;-38
2021/12/13 05:32:23;;;;;;;22.67;13.18;;;8.90;95.40;;;;;;5075408;28;20536;-38
2021/12/13 05:35:04;;;;;;;23.10;12.63;;;8.90;95.20;;;;;;5075615;28;20024;-38
2021/12/13 05:37:44;;;;;;;16.73;11.48;;;8.90;95.20;;;;;;5075454;28;20099;-38
2021/12/13 05:40:15;;;;;;;22.73;11.60;;;8.80;95.20;;;;;;5075444;28;20016;-39
2021/12/13 05:42:54;;;;;;;19.70;11.68;;;8.80;95.10;;;;;;5074984;28;20040;-38
2021/12/13 05:45:36;;;;;;;15.40;9.93;;;8.80;95.20;;;;;;5075243;28;20436;-38
2021/12/13 05:48:14;;;;;;;23.63;11.30;;;8.80;95.30;;;;;;5075353;28;20169;-38
2021/12/13 05:50:51;;;;;;;18.17;11.25;;;8.90;95.40;;;;;;5074838;28;20021;-38
2021/12/13 05:53:22;;;;;;;18.50;10.70;;;8.90;95.20;;;;;;5075383;28;20103;-38
2021/12/13 05:56:00;;;;;;;18.58;11.57;;;8.80;95.00;;;;;;5074986;28;20047;-38
2021/12/13 05:58:46;;;;;;;18.10;9.95;;;8.80;95.10;;;;;;5074720;28;20025;-38
2021/12/13 06:01:30;;;;;;;16.63;10.27;;;8.80;95.20;;;;;;5074297;28;20048;-38
2021/12/13 06:04:13;;;;;;;18.52;10.15;;;8.80;95.20;;;;;;5074826;28;20032;-38
2021/12/13 06:06:51;;;;;;;19.73;11.00;;;8.80;95.20;;;;;;5074518;28;20089;-38
2021/12/13 06:09:48;;;;;;;16.00;10.20;;;8.90;95.10;;;;;;5074420;28;20024;-37
2021/12/13 06:12:31;;;;;;;14.77;9.85;;;8.90;95.00;;;;;;5074611;28;20103;-37
2021/12/13 06:15:23;;;;;;;14.70;9.15;;;8.90;94.90;;;;;;5074774;28;20036;-38
2021/12/13 06:18:12;;;;;;;17.35;11.48;;;8.90;94.80;;;;;;5063808;28;20397;-38
2021/12/13 06:20:47;;;;;;;17.13;9.55;;;8.90;94.70;;;;;;5074343;28;20036;-37
2021/12/13 06:23:20;;;;;;;18.00;10.30;;;8.90;94.60;;;;;;5074197;28;20029;-37
2021/12/13 06:25:48;;;;;;;17.10;10.25;;;8.90;94.70;;;;;;5072939;28;20107;-37
2021/12/13 06:28:45;;;;;;;14.50;9.63;;;8.80;94.60;;;;;;5072949;28;20506;-37
2021/12/13 06:31:19;;;;;;;16.45;9.00;;;8.90;94.70;;;;;;5065381;28;20036;-38
2021/12/13 06:34:01;;;;;;;15.20;10.68;;;8.80;94.60;;;;;;5075999;28;20028;-38
2021/12/13 06:36:29;;;;;;;16.83;9.00;;;8.90;94.70;;;;;;5074563;28;20029;-37
2021/12/13 06:38:57;;;;;;;15.55;9.65;;;8.90;94.50;;;;;;5074621;28;20029;-37
2021/12/13 06:41:26;;;;;;;17.02;9.43;;;8.80;94.40;;;;;;5073804;28;20423;-38
2021/12/13 06:43:58;;;;;;;17.27;11.05;;;8.90;94.30;;;;;;5073241;28;20070;-37
2021/12/13 06:46:23;;;;;;;16.02;9.32;;;8.90;94.20;;;;;;5072232;28;20032;-38
2021/12/13 06:48:59;;;;;;;16.45;10.45;;;8.80;94.30;;;;;;5073695;28;20453;-37
2021/12/13 06:51:53;;;;;;;17.02;9.13;;;8.80;94.40;;;;;;5073277;28;20065;-38
2021/12/13 06:54:25;;;;;;;15.55;9.57;;;8.90;94.40;;;;;;5073149;28;20047;-38
2021/12/13 06:57:02;;;;;;;11.30;8.15;;;8.80;94.30;;;;;;5073466;28;20029;-38
2021/12/13 06:59:30;;;;;;;15.05;10.23;;;8.80;94.30;;;;;;5073713;28;20032;-38
2021/12/13 07:02:07;;;;;;;14.80;9.23;;;8.90;94.30;;;;;;5073052;28;20036;-37
2021/12/13 07:05:04;;;;;;;17.48;10.45;;;8.90;94.20;;;;;;5055251;28;20103;-37
2021/12/13 07:07:36;;;;;;;16.27;9.88;;;8.90;94.10;;;;;;5072721;28;20447;-37
2021/12/13 07:10:10;;;;;;;15.23;9.45;;;8.90;94.00;;;;;;5071820;28;20024;-38
2021/12/13 07:12:45;;;;;;;22.55;11.38;;;8.90;94.00;;;;;;5073094;28;20036;-38
2021/12/13 07:15:40;;;;;;;20.17;11.52;;;8.90;93.80;;;;;;5073129;28;20032;-37
2021/12/13 07:18:18;;;;;;;18.42;8.93;;;8.90;93.90;;;;;;5073216;28;20032;-38
2021/12/13 07:21:03;;;;;;;13.45;9.15;;;8.90;93.90;;;;;;5073035;28;20489;-38
2021/12/13 07:24:08;;;;;;;14.88;10.05;;;8.90;93.90;;;;;;5073286;28;20103;-38
2021/12/13 07:26:44;;;;;;;21.13;9.85;;;8.90;93.80;;;;;;5073293;28;20021;-40
2021/12/13 07:29:12;;;;;;;16.52;8.52;;;8.90;93.90;;;;;;5075984;28;20021;-37
2021/12/13 07:31:40;;;;;;;15.40;10.15;;;8.90;93.80;;;;;;5072523;28;20020;-37
2021/12/13 07:34:15;;;;;;;16.10;9.75;;;8.90;93.60;;;;;;5072469;28;20142;-38
2021/12/13 07:36:44;;;;;;;13.48;8.55;;;9.00;93.60;;;;;;5073558;28;20073;-44
2021/12/13 07:39:15;;;;;;;14.98;9.23;;;9.10;93.40;;;;;;5071784;28;20357;-37
2021/12/13 07:41:47;;;;;;;17.63;9.57;;;9.00;93.10;;;;;;5072704;28;20020;-38
2021/12/13 07:44:30;;;;;;;12.63;8.55;;;9.00;93.20;;;;;;5074810;28;20034;-39
2021/12/13 07:47:21;;;;;;;15.98;8.63;;;9.00;93.20;;;;;;5073292;28;20403;-39
2021/12/13 07:49:59;;;;;;;12.23;7.85;;;9.10;93.00;;;;;;5071180;28;20384;-38
2021/12/13 07:52:32;;;;;;;14.32;8.90;;;9.20;92.60;;;;;;5072880;28;20024;-38
2021/12/13 07:55:13;;;;;;;18.00;8.85;;;9.20;92.50;;;;;;5072484;28;20039;-38
2021/12/13 07:57:39;;;;;;;13.05;8.15;;;9.10;92.70;;;;;;5072132;28;20086;-38
2021/12/13 08:00:21;;;;;;;13.85;7.68;;;9.10;92.70;;;;;;5072209;28;20025;-38
2021/12/13 14:03:06;;;;;;;7.15;3.85;;;9.70;88.60;;;;;;5131805;27;20114;-51
2021/12/13 14:05:38;;;;;;;9.57;4.07;;;9.80;88.40;;;;;;5131388;28;20027;-48
2021/12/13 14:08:16;;;;;;;7.78;3.50;;;9.80;88.20;;;;;;5095637;28;20111;-49
2021/12/13 14:10:42;;;;;;;8.60;4.18;;;9.90;88.00;;;;;;5131083;28;20024;-49
2021/12/13 14:13:08;;;;;;;6.70;3.88;;;9.90;88.10;;;;;;5131502;28;20532;-49
2021/12/13 14:15:36;;;;;;;5.82;3.67;;;9.90;87.80;;;;;;5130729;28;20024;-49
2021/12/13 14:18:15;;;;;;;5.35;3.40;;;9.90;87.90;;;;;;5120579;28;20126;-49
2021/12/13 14:20:43;;;;;;;8.52;4.30;;;9.90;88.10;;;;;;5130881;27;20102;-51
2021/12/13 14:23:14;;;;;;;8.57;3.65;;;9.90;88.00;;;;;;5130402;27;20019;-52
2021/12/13 14:25:54;;;;;;;10.20;3.80;;;9.90;87.70;;;;;;5130596;27;20025;-51
2021/12/13 14:28:39;;;;;;;10.35;5.32;;;10.10;87.60;;;;;;5130235;27;20012;-50
2021/12/13 14:31:11;;;;;;;5.68;3.45;;;10.00;87.10;;;;;;5130238;27;20058;-50
2021/12/13 14:33:43;;;;;;;8.07;4.00;;;10.00;87.20;;;;;;5129985;27;20079;-52
2021/12/13 14:36:25;;;;;;;7.68;4.63;;;10.00;87.30;;;;;;5130422;27;20058;-49
2021/12/13 14:38:55;;;;;;;7.10;3.97;;;10.00;86.90;;;;;;5130006;27;20023;-50
2021/12/13 14:41:24;;;;;;;7.97;3.75;;;9.80;87.50;;;;;;5130043;27;20031;-50
2021/12/13 14:43:58;;;;;;;6.43;3.50;;;9.90;87.20;;;;;;5128385;28;20389;-51
2021/12/13 14:46:30;;;;;;;6.45;4.00;;;9.90;86.80;;;;;;5130201;27;20068;-50
2021/12/13 14:49:12;;;;;;;6.38;4.22;;;10.00;86.30;;;;;;5130796;28;20015;-51
2021/12/13 14:51:53;;;;;;;8.38;4.30;;;9.90;86.90;;;;;;5129987;27;20031;-53
2021/12/13 14:54:24;;;;;;;6.28;3.95;;;9.90;86.20;;;;;;5128738;28;20020;-51
2021/12/13 14:56:57;;;;;;;10.55;3.90;;;9.80;86.60;;;;;;5130040;27;20473;-53
2021/12/13 14:59:23;;;;;;;8.77;4.05;;;9.80;86.80;;;;;;5130435;27;20496;-53
2021/12/13 15:01:50;;;;;;;7.88;3.95;;;9.80;86.90;;;;;;5129552;27;20501;-48
2021/12/13 15:04:18;;;;;;;4.25;2.97;;;9.80;86.50;;;;;;5129667;27;20412;-49
2021/12/13 15:06:57;;;;;;;6.43;3.33;;;9.80;86.30;;;;;;5129245;27;20069;-50
2021/12/13 15:09:33;;;;;;;11.00;4.20;;;9.80;86.50;;;;;;5130260;27;20081;-51
2021/12/13 15:12:04;;;;;;;12.68;4.78;;;9.80;86.10;;;;;;5129564;27;20375;-51
2021/12/13 15:14:36;;;;;;;9.23;4.85;;;9.80;85.70;;;;;;5114574;28;20378;-49
2021/12/13 15:17:11;;;;;;;11.02;3.97;;;9.80;85.90;;;;;;5116728;28;20104;-50
2021/12/13 15:19:38;;;;;;;5.03;3.45;;;9.80;85.50;;;;;;5115906;28;20027;-53
2021/12/13 15:22:07;;;;;;;6.70;3.03;;;9.80;85.90;;;;;;5097162;28;20506;-51
2021/12/13 15:24:35;;;;;;;6.40;3.28;;;9.80;85.30;;;;;;5115374;28;20035;-51
2021/12/13 15:27:15;;;;;;;7.35;4.18;;;9.80;85.50;;;;;;5115514;28;20016;-50
2021/12/13 15:29:41;;;;;;;6.85;3.22;;;9.80;85.80;;;;;;5115294;28;20494;-53
2021/12/13 15:32:15;;;;;;;6.93;3.15;;;9.80;85.50;;;;;;5115982;28;20080;-51
2021/12/13 15:35:03;;;;;;;5.60;3.42;;;9.70;85.80;;;;;;5115417;28;20378;-50
2021/12/13 15:37:32;;;;;;;7.80;3.72;;;9.70;85.80;;;;;;5113563;28;20030;-53
2021/12/13 15:40:00;;;;;;;3.33;2.67;;;9.70;85.60;;;;;;5113922;28;20055;-52
2021/12/13 15:42:27;;;;;;;5.28;2.67;;;9.60;86.10;;;;;;5114592;28;20043;-52
2021/12/13 15:44:53;;;;;;;4.18;2.67;;;9.50;86.40;;;;;;5115150;28;20073;-51
2021/12/13 15:47:40;;;;;;;4.72;3.33;;;9.50;86.60;;;;;;5115414;28;20383;-52
2021/12/13 15:50:27;;;;;;;5.00;3.38;;;9.40;86.80;;;;;;5115323;28;20055;-50
2021/12/13 15:53:05;;;;;;;7.93;4.55;;;9.50;86.80;;;;;;5115713;28;20023;-50
2021/12/13 15:55:38;;;;;;;5.20;2.58;;;9.50;86.60;;;;;;5115421;28;20084;-53
2021/12/13 15:58:30;;;;;;;5.70;3.03;;;9.50;86.70;;;;;;5115017;28;20541;-49
2021/12/13 16:01:20;;;;;;;4.25;2.83;;;9.50;86.20;;;;;;5114622;28;20122;-50
2021/12/13 16:03:53;;;;;;;4.07;2.50;;;9.50;86.30;;;;;;5115160;28;20077;-54
2021/12/13 16:06:22;;;;;;;7.30;3.22;;;9.40;86.50;;;;;;5114752;28;20031;-50
2021/12/13 16:08:56;;;;;;;5.00;3.58;;;9.50;86.70;;;;;;5114890;28;20422;-49
2021/12/13 16:11:33;;;;;;;3.60;2.35;;;9.50;86.60;;;;;;5114828;28;20051;-49
2021/12/13 16:14:18;;;;;;;3.53;2.55;;;9.60;86.40;;;;;;5114328;28;20032;-49
2021/12/13 16:17:08;;;;;;;8.75;4.68;;;9.50;86.30;;;;;;5114170;28;20032;-49
2021/12/13 16:19:33;;;;;;;3.50;2.50;;;9.60;86.60;;;;;;5115899;28;20027;-52
2021/12/13 16:21:59;;;;;;;5.55;3.30;;;9.50;86.10;;;;;;5115150;28;20030;-38
2021/12/13 16:24:25;;;;;;;4.32;2.65;;;9.50;86.60;;;;;;5113864;28;20020;-38
2021/12/13 16:26:53;;;;;;;10.45;2.97;;;9.50;86.40;;;;;;5115117;28;20023;-40
2021/12/13 16:29:19;;;;;;;4.22;2.95;;;9.60;86.30;;;;;;5114751;28;20098;-38
2021/12/13 16:31:45;;;;;;;5.15;2.80;;;9.60;86.10;;;;;;5114711;28;20423;-39
2021/12/13 16:34:20;;;;;;;4.93;3.17;;;9.60;85.90;;;;;;5114197;28;20038;-37
2021/12/13 16:36:55;;;;;;;3.53;2.22;;;9.60;86.20;;;;;;5114836;28;20145;-40
2021/12/13 16:39:36;;;;;;;10.52;3.95;;;9.60;86.10;;;;;;5115159;28;20023;-38
2021/12/13 16:42:06;;;;;;;6.47;3.38;;;9.50;86.20;;;;;;5097050;28;20481;-38
2021/12/13 16:44:40;;;;;;;6.65;3.20;;;9.50;86.50;;;;;;5115520;28;20031;-39
2021/12/13 16:47:10;;;;;;;5.57;2.78;;;9.50;86.50;;;;;;5114164;28;20023;-38
2021/12/13 16:49:39;;;;;;;5.85;3.20;;;9.60;85.80;;;;;;5114652;28;20020;-38
2021/12/13 16:52:15;;;;;;;5.65;2.88;;;9.60;85.90;;;;;;5114042;28;20020;-39
2021/12/13 16:54:43;;;;;;;6.00;2.78;;;9.50;86.50;;;;;;5114932;28;20076;-38
2021/12/13 16:57:25;;;;;;;6.03;3.53;;;9.40;86.60;;;;;;5114225;28;20027;-38
2021/12/13 16:59:55;;;;;;;6.80;3.45;;;9.50;86.10;;;;;;5114192;28;20024;-38
2021/12/13 17:02:21;;;;;;;6.25;3.28;;;9.60;85.80;;;;;;5113421;28;20047;-39
2021/12/13 17:05:00;;;;;;;4.30;2.65;;;9.60;85.70;;;;;;5113823;28;20028;-37
2021/12/13 17:07:33;;;;;;;5.38;3.08;;;9.50;85.40;;;;;;5112377;28;20015;-38
2021/12/13 17:10:10;;;;;;;3.70;2.83;;;9.40;86.00;;;;;;5114172;28;20027;-38
2021/12/13 17:12:59;;;;;;;4.70;2.40;;;9.30;85.90;;;;;;5113630;28;20034;-38
2021/12/13 17:15:53;;;;;;;7.25;2.13;;;9.40;85.50;;;;;;5113441;28;20024;-37
2021/12/13 17:18:57;;;;;;;3.85;2.50;;;9.40;85.70;;;;;;5113894;28;20076;-38
2021/12/13 17:21:32;;;;;;;7.68;3.53;;;9.40;85.70;;;;;;5107208;28;20040;-38
2021/12/13 17:24:26;;;;;;;8.25;3.03;;;9.40;85.70;;;;;;5113752;28;20099;-38
2021/12/13 17:27:03;;;;;;;8.27;2.17;;;9.50;85.00;;;;;;5113593;28;20490;-38
2021/12/13 17:29:41;;;;;;;7.28;2.35;;;9.40;85.20;;;;;;5113841;28;20019;-38
2021/12/13 17:32:07;;;;;;;4.20;1.95;;;9.50;85.30;;;;;;5113735;28;20070;-38
2021/12/13 17:34:46;;;;;;;3.50;2.13;;;9.50;84.50;;;;;;5113979;28;20332;-37
2021/12/13 17:37:26;;;;;;;6.70;2.92;;;9.50;84.80;;;;;;5113592;28;20036;-37
2021/12/13 17:40:11;;;;;;;;;;;9.50;84.90;;;;;;5114349;28;20019;-37
2021/12/13 17:42:44;;;;;;;4.65;2.58;;;9.40;85.20;;;;;;5113574;28;20332;-38
2021/12/13 17:45:23;;;;;;;4.00;2.45;;;9.40;84.90;;;;;;5111585;28;20024;-38
2021/12/13 17:47:52;;;;;;;4.13;2.03;;;9.40;84.80;;;;;;5111752;28;20387;-38
2021/12/13 17:50:29;;;;;;;3.35;2.15;;;9.30;84.80;;;;;;5111486;28;20016;-38
2021/12/13 17:53:02;;;;;;;5.90;2.65;;;9.30;84.70;;;;;;5113805;28;20532;-38
2021/12/13 17:55:30;;;;;;;7.45;2.22;;;9.30;84.80;;;;;;5113292;28;20084;-38
2021/12/13 17:57:58;;;;;;;7.50;2.17;;;9.20;85.00;;;;;;5113368;28;20019;-38
2021/12/13 18:00:56;;;;;;;3.00;2.13;;;9.20;85.20;;;;;;5114070;28;20032;-38
2021/12/13 18:03:34;;;;;;;6.60;2.40;;;9.30;84.90;;;;;;5103862;28;20047;-38
2021/12/13 18:06:22;;;;;;;5.45;3.38;;;9.30;84.70;;;;;;5113726;28;20031;-39
2021/12/13 18:09:13;;;;;;;8.65;2.97;;;9.30;84.60;;;;;;5106698;28;20046;-39
2021/12/13 18:12:15;;;;;;;4.70;1.75;;;9.20;84.80;;;;;;5113697;28;20090;-38
2021/12/13 18:14:40;;;;;;;5.63;2.28;;;9.30;84.40;;;;;;5110376;28;20111;-38
2021/12/13 18:17:15;;;;;;;5.40;2.30;;;9.20;84.60;;;;;;5112939;28;20560;-38
2021/12/13 18:20:12;;;;;;;6.25;2.50;;;9.20;84.90;;;;;;5113208;28;20474;-37
2021/12/13 18:22:43;;;;;;;4.07;1.83;;;9.20;84.10;;;;;;5098625;28;20038;-39
2021/12/13 18:25:20;;;;;;;7.90;2.20;;;9.30;84.00;;;;;;5113207;28;20020;-38
2021/12/13 18:27:55;;;;;;;2.85;2.30;;;9.30;83.90;;;;;;5112982;28;20023;-38
2021/12/13 18:30:25;;;;;;;4.93;2.50;;;9.20;84.10;;;;;;5113269;28;20020;-39
2021/12/13 18:32:51;;;;;;;;;;;9.20;84.20;;;;;;5095917;28;20467;-52
2021/12/13 18:35:22;;;;;;;7.00;2.47;;;9.20;83.60;;;;;;5112548;28;19969;-48
2021/12/13 18:37:48;;;;;;;4.93;3.05;;;9.30;83.20;;;;;;5111229;28;20024;-51
2021/12/13 18:40:36;;;;;;;3.53;2.45;;;9.30;83.50;;;;;;5112862;28;20027;-52
2021/12/13 18:43:11;;;;;;;4.15;2.00;;;9.20;83.70;;;;;;5112736;28;20063;-49
2021/12/13 18:45:45;;;;;;;7.28;3.47;;;9.20;83.60;;;;;;5111589;28;20035;-51
2021/12/13 18:48:23;;;;;;;7.18;2.45;;;9.10;84.00;;;;;;5113387;28;20376;-53
2021/12/13 18:50:54;;;;;;;6.97;2.85;;;9.20;83.80;;;;;;5117121;28;20020;-51
2021/12/13 18:53:25;;;;;;;6.13;2.78;;;9.10;84.10;;;;;;5117894;28;20027;-47
2021/12/13 18:56:00;;;;;;;7.65;2.83;;;9.10;84.30;;;;;;5117717;28;20463;-52
2021/12/13 18:58:31;;;;;;;6.65;2.55;;;9.10;83.80;;;;;;5117715;27;20468;-50
2021/12/13 19:01:18;;;;;;;8.63;2.63;;;9.20;84.00;;;;;;5116517;28;20411;-53
2021/12/13 19:03:59;;;;;;;5.13;3.40;;;9.30;83.00;;;;;;5117061;28;20016;-52
2021/12/13 19:06:36;;;;;;;4.93;2.50;;;9.30;83.20;;;;;;5117057;28;20030;-49
2021/12/13 19:09:42;;;;;;;3.53;2.00;;;9.20;83.10;;;;;;5116531;28;20028;-52
2021/12/13 19:12:17;;;;;;;8.32;2.50;;;9.20;83.30;;;;;;5092672;28;20055;-52
2021/12/13 19:15:20;;;;;;;3.40;2.15;;;9.10;83.70;;;;;;5116014;28;20424;-49
2021/12/13 19:17:57;;;;;;;5.50;1.90;;;9.20;83.60;;;;;;5116332;28;20027;-51
2021/12/13 19:20:34;;;;;;;2.03;1.55;;;9.10;83.30;;;;;;5115966;28;20309;-49
2021/12/13 19:23:13;;;;;;;4.32;2.20;;;9.30;83.00;;;;;;5115709;28;20479;-52
2021/12/13 19:25:49;;;;;;;4.75;2.05;;;9.10;83.00;;;;;;5116041;28;20023;-56
2021/12/13 19:28:18;;;;;;;3.22;2.67;;;9.00;83.60;;;;;;5115876;28;20095;-54
2021/12/13 19:31:02;;;;;;;3.72;1.92;;;9.00;83.70;;;;;;5115879;28;20030;-49
2021/12/13 19:33:40;;;;;;;5.03;2.15;;;9.10;83.10;;;;;;5116249;28;20027;-51
2021/12/13 19:36:22;;;;;;;3.97;1.58;;;9.10;83.10;;;;;;5116340;28;20024;-52
2021/12/13 19:39:08;;;;;;;3.58;2.17;;;9.10;82.60;;;;;;5116513;28;20115;-51
2021/12/13 19:41:40;;;;;;;4.30;2.67;;;9.00;83.20;;;;;;5116905;28;20019;-53
2021/12/13 19:44:29;;;;;;;3.58;2.00;;;9.20;82.80;;;;;;5116377;28;20027;-51
2021/12/13 19:47:09;;;;;;;4.50;2.15;;;9.10;82.60;;;;;;5116949;28;20145;-51
2021/12/13 19:49:39;;;;;;;4.85;2.20;;;9.10;82.70;;;;;;5116226;28;20024;-51
2021/12/13 19:52:25;;;;;;;2.63;1.90;;;9.00;83.00;;;;;;5116121;28;20380;-52
2021/12/13 19:54:59;;;;;;;3.95;2.40;;;8.90;83.40;;;;;;5116408;28;20080;-52
2021/12/13 19:57:31;;;;;;;6.07;1.88;;;9.00;83.10;;;;;;5116311;28;20110;-52
2021/12/13 20:00:20;;;;;;;6.25;2.38;;;9.00;83.00;;;;;;5116798;28;20043;-51
2021/12/13 20:02:57;;;;;;;5.18;2.10;;;9.00;82.80;;;;;;5114866;28;20403;-54
2021/12/13 20:05:51;;;;;;;4.22;1.90;;;8.90;82.90;;;;;;5116513;28;20048;-54
2021/12/13 20:08:23;;;;;;;4.97;2.10;;;8.90;83.00;;;;;;5114113;28;20035;-52
2021/12/13 20:10:59;;;;;;;5.40;2.40;;;8.80;83.50;;;;;;5115992;28;20019;-50
2021/12/13 20:13:39;;;;;;;4.60;2.40;;;8.90;83.00;;;;;;5116234;28;20023;-51
2021/12/13 20:16:23;;;;;;;3.90;1.88;;;8.90;83.40;;;;;;5116291;28;20088;-51
2021/12/13 20:18:56;;;;;;;12.00;2.95;;;8.80;83.50;;;;;;5115711;28;20023;-52
2021/12/13 20:21:39;;;;;;;4.28;1.85;;;8.80;83.20;;;;;;5115802;28;20024;-50
2021/12/13 20:24:31;;;;;;;3.45;1.90;;;8.80;83.60;;;;;;5115709;28;20027;-50
2021/12/13 20:27:03;;;;;;;4.63;2.28;;;8.80;83.60;;;;;;5109918;28;20146;-54
2021/12/13 20:29:33;;;;;;;5.70;2.33;;;8.80;83.80;;;;;;5115693;28;20031;-50
2021/12/13 20:32:20;;;;;;;6.13;2.35;;;8.80;83.30;;;;;;5115315;28;20028;-52
2021/12/13 20:34:54;;;;;;;2.85;1.80;;;8.80;83.30;;;;;;5115164;28;20440;-53
2021/12/13 20:37:26;;;;;;;2.80;2.10;;;8.80;83.00;;;;;;5114984;28;20023;-53
2021/12/13 20:40:17;;;;;;;3.38;2.08;;;8.80;83.10;;;;;;5114814;28;20028;-51
2021/12/13 20:43:07;;;;;;;5.82;2.05;;;8.80;82.90;;;;;;5109017;28;20093;-51
2021/12/13 20:45:41;;;;;;;3.63;2.28;;;8.80;83.00;;;;;;5115185;28;20020;-52
2021/12/13 20:48:14;;;;;;;3.22;2.15;;;8.80;82.90;;;;;;5115315;28;20065;-49
2021/12/13 20:50:46;;;;;;;9.55;2.65;;;8.80;83.20;;;;;;5115469;28;20028;-51
2021/12/13 20:53:15;;;;;;;3.92;2.40;;;8.70;83.50;;;;;;5113985;28;20073;-51
2021/12/13 20:56:04;;;;;;;3.20;2.25;;;8.80;83.10;;;;;;5115320;28;20085;-49
2021/12/13 20:59:00;;;;;;;7.25;2.30;;;8.80;83.10;;;;;;5115152;28;20468;-51
2021/12/13 21:01:54;;;;;;;4.53;2.45;;;8.80;83.00;;;;;;5114822;28;20092;-53
2021/12/13 21:04:31;;;;;;;4.55;3.00;;;8.80;82.80;;;;;;5112235;28;20119;-50
2021/12/13 21:07:03;;;;;;;4.53;2.13;;;8.80;82.80;;;;;;5114669;28;20088;-49
2021/12/13 21:09:49;;;;;;;3.97;2.80;;;8.80;82.70;;;;;;5114286;28;20020;-54
2021/12/13 21:12:29;;;;;;;4.35;3.03;;;8.80;82.60;;;;;;5113950;27;20040;-52
2021/12/13 21:15:10;;;;;;;4.00;2.22;;;8.80;82.40;;;;;;5113226;28;20404;-51
2021/12/13 21:17:42;;;;;;;7.43;2.97;;;8.90;82.10;;;;;;5113574;28;20107;-49
2021/12/13 21:20:17;;;;;;;4.05;2.53;;;8.80;82.70;;;;;;5114652;28;20052;-54
2021/12/13 21:22:51;;;;;;;6.40;2.92;;;8.80;82.60;;;;;;5112927;28;20023;-52
2021/12/13 21:25:23;;;;;;;2.58;2.10;;;8.70;83.10;;;;;;5112747;28;20492;-53
2021/12/13 21:28:02;;;;;;;4.65;2.83;;;8.70;83.10;;;;;;5112532;28;20054;-51
2021/12/13 21:30:33;;;;;;;4.43;2.90;;;8.70;83.50;;;;;;5114236;28;20020;-52
2021/12/13 21:32:59;;;;;;;7.07;3.53;;;8.70;83.30;;;;;;5113043;28;20023;-54
2021/12/13 21:35:46;;;;;;;4.80;3.40;;;8.90;82.20;;;;;;5112750;28;20077;-49
2021/12/13 21:41:14;;;;;;;5.57;3.55;;;8.80;82.80;;;;;;5113772;28;20101;-53
2021/12/13 21:43:50;;;;;;;6.65;3.38;;;8.80;82.40;;;;;;5114209;27;20059;-52
2021/12/13 21:46:30;;;;;;;6.18;3.00;;;8.80;82.70;;;;;;5113679;28;20030;-52
2021/12/13 21:48:57;;;;;;;5.65;3.95;;;8.80;83.00;;;;;;5114015;28;20020;-52
2021/12/13 21:51:58;;;;;;;5.40;3.55;;;8.80;82.70;;;;;;5113986;28;20110;-49
2021/12/13 21:54:39;;;;;;;6.70;3.60;;;8.90;82.10;;;;;;5104307;28;20057;-52
2021/12/13 21:57:11;;;;;;;10.50;4.18;;;9.00;82.00;;;;;;5112354;28;20034;-53
2021/12/13 21:59:51;;;;;;;5.43;3.88;;;8.90;81.70;;;;;;5113752;27;20035;-52
2021/12/13 22:02:20;;;;;;;9.90;4.23;;;8.70;82.60;;;;;;5113754;28;20400;-52
2021/12/13 22:04:57;;;;;;;5.43;3.83;;;8.60;83.10;;;;;;5113899;28;20019;-51
2021/12/13 22:07:40;;;;;;;5.63;3.83;;;8.60;83.80;;;;;;5112044;28;20031;-51
2021/12/13 22:10:35;;;;;;;4.90;3.47;;;8.70;83.20;;;;;;5113424;28;20028;-50
2021/12/13 22:13:07;;;;;;;4.78;3.65;;;8.70;83.50;;;;;;5097575;28;20024;-50
2021/12/13 22:15:45;;;;;;;6.78;4.30;;;8.70;83.60;;;;;;5113368;28;20020;-50
2021/12/13 22:18:25;;;;;;;8.18;4.18;;;8.70;83.60;;;;;;5112852;27;20031;-50
2021/12/13 22:20:53;;;;;;;;;;;8.70;84.00;;;;;;5113862;28;20039;-50
2021/12/13 22:23:23;;;;;;;5.30;3.90;;;8.70;83.60;;;;;;5114342;28;20019;-49
2021/12/13 22:25:55;;;;;;;6.38;3.42;;;8.60;84.00;;;;;;5117698;28;20015;-51
2021/12/13 22:28:28;;;;;;;5.05;3.92;;;8.70;84.00;;;;;;5117669;28;20027;-50
2021/12/13 22:31:07;;;;;;;8.63;5.45;;;8.70;84.10;;;;;;5117874;27;20027;-49
2021/12/13 22:33:33;;;;;;;7.63;4.00;;;8.80;83.70;;;;;;5116443;28;20028;-49
2021/12/13 22:36:03;;;;;;;4.57;3.22;;;8.70;83.50;;;;;;5117853;28;20024;-51
2021/12/13 22:38:33;;;;;;;5.15;3.25;;;8.60;83.90;;;;;;5116340;28;20019;-50
2021/12/13 22:41:07;;;;;;;8.15;3.90;;;8.60;83.90;;;;;;5117830;28;20028;-50
2021/12/13 22:43:41;;;;;;;4.50;3.65;;;8.50;84.40;;;;;;5116151;28;20077;-51
2021/12/13 22:46:11;;;;;;;7.88;3.58;;;8.50;84.30;;;;;;5117893;28;20502;-49
2021/12/13 22:48:37;;;;;;;;;;;8.50;84.60;;;;;;5118371;28;20102;-48
2021/12/13 22:51:06;;;;;;;5.82;3.47;;;8.50;84.40;;;;;;5117337;28;20251;-48
2021/12/13 22:53:33;;;;;;;4.28;3.70;;;8.50;84.20;;;;;;5117690;27;20024;-50
2021/12/13 22:56:05;;;;;;;7.05;3.40;;;8.60;84.40;;;;;;5116518;28;20491;-53
2021/12/13 22:58:45;;;;;;;4.85;4.35;;;8.50;84.30;;;;;;5117373;28;20020;-50
